Time;durP1;ratioP1;P1;durP2;ratioP2;P2;SDS_P1;SDS_P2;PMS_P1;PMS_P2;Temp;Humidity;BMP_temperature;BMP_pressure;BME280_temperature;BME280_humidity;BME280_pressure;Samples;Min_cycle;Max_cycle;Signal;HPM_P1;HPM_P2
2021/09/14 00:00:13;;;;;;;10.57;9.67;;;17.80;99.90;;;;;;5098861;28;20472;-83
2021/09/14 00:02:40;;;;;;;10.20;9.30;;;17.80;99.90;;;;;;5097474;28;20455;-82
2021/09/14 00:05:08;;;;;;;10.40;7.97;;;17.80;99.90;;;;;;5102122;28;20450;-81
2021/09/14 00:07:36;;;;;;;9.13;8.40;;;17.80;99.90;;;;;;5098774;28;20460;-83
2021/09/14 00:10:02;;;;;;;9.27;8.57;;;17.70;99.90;;;;;;5104839;28;20465;-82
2021/09/14 00:12:29;;;;;;;9.17;8.47;;;17.70;99.90;;;;;;5112399;28;20428;-84
2021/09/14 00:14:56;;;;;;;9.57;8.77;;;17.70;99.90;;;;;;5110065;28;20441;-83
2021/09/14 00:17:23;;;;;;;9.63;8.83;;;17.70;99.90;;;;;;5098102;28;20480;-82
2021/09/14 00:19:50;;;;;;;9.50;8.80;;;17.60;99.90;;;;;;5098279;28;20473;-83
2021/09/14 00:22:17;;;;;;;10.57;9.27;;;17.60;99.90;;;;;;5097740;28;20942;-83
2021/09/14 00:24:45;;;;;;;9.97;9.07;;;17.60;99.90;;;;;;5098294;28;20958;-86
2021/09/14 00:27:12;;;;;;;11.73;9.37;;;17.60;99.90;;;;;;5098302;28;20456;-82
2021/09/14 00:29:38;;;;;;;9.57;8.77;;;17.60;99.90;;;;;;5098048;28;20480;-83
2021/09/14 00:32:06;;;;;;;9.60;8.70;;;17.60;99.90;;;;;;5097743;28;20446;-83
2021/09/14 00:34:32;;;;;;;9.53;8.80;;;17.60;99.90;;;;;;5098411;28;20460;-83
2021/09/14 00:36:59;;;;;;;9.03;8.07;;;17.60;99.90;;;;;;5098330;28;20512;-83
2021/09/14 00:39:26;;;;;;;11.20;10.10;;;17.60;99.90;;;;;;5098588;28;20469;-83
2021/09/14 00:41:54;;;;;;;9.67;8.77;;;17.50;99.90;;;;;;5098222;28;20451;-83
2021/09/14 00:44:20;;;;;;;8.90;8.10;;;17.50;99.90;;;;;;5097410;28;20456;-83
2021/09/14 00:46:47;;;;;;;9.80;8.87;;;17.50;99.90;;;;;;5097983;28;20452;-83
2021/09/14 00:49:15;;;;;;;9.37;8.47;;;17.50;99.90;;;;;;5097912;28;20453;-84
2021/09/14 00:51:41;;;;;;;8.20;7.60;;;17.50;99.90;;;;;;5097688;28;20457;-82
2021/09/14 00:54:13;;;;;;;8.17;7.57;;;17.50;99.90;;;;;;5097515;28;20457;-84
2021/09/14 00:56:41;;;;;;;8.10;7.40;;;17.50;99.90;;;;;;5098494;28;20844;-83
2021/09/14 00:59:09;;;;;;;8.90;8.10;;;17.50;99.90;;;;;;5098569;28;20457;-83
2021/09/14 01:01:35;;;;;;;10.57;9.60;;;17.50;99.90;;;;;;5098418;28;20455;-82
2021/09/14 01:04:02;;;;;;;9.97;9.17;;;17.40;99.90;;;;;;5097209;28;20459;-84
2021/09/14 01:06:29;;;;;;;9.97;9.00;;;17.50;99.90;;;;;;5098684;28;20446;-83
2021/09/14 01:08:57;;;;;;;7.77;7.17;;;17.50;99.90;;;;;;5098096;28;20449;-81
2021/09/14 01:11:23;;;;;;;8.50;7.80;;;17.40;99.90;;;;;;5097321;28;20460;-83
2021/09/14 01:14:00;;;;;;;9.37;8.47;;;17.40;99.90;;;;;;5097766;28;20455;-83
2021/09/14 01:16:30;;;;;;;9.00;8.13;;;17.40;99.90;;;;;;5098264;28;20471;-83
2021/09/14 01:18:57;;;;;;;8.80;8.00;;;17.40;99.90;;;;;;5097568;28;20794;-83
2021/09/14 01:21:24;;;;;;;8.80;7.90;;;17.40;99.90;;;;;;5097636;28;20449;-82
2021/09/14 01:23:52;;;;;;;10.00;9.20;;;17.40;99.90;;;;;;5098511;28;20460;-83
2021/09/14 01:26:19;;;;;;;9.00;8.20;;;17.40;99.90;;;;;;5099330;28;20441;-82
2021/09/14 01:28:45;;;;;;;10.20;9.33;;;17.40;99.90;;;;;;5102147;28;20459;-82
2021/09/14 01:31:12;;;;;;;9.50;8.70;;;17.30;99.90;;;;;;5102007;28;20476;-83
2021/09/14 01:33:39;;;;;;;8.77;8.00;;;17.30;99.90;;;;;;5100707;28;20823;-83
2021/09/14 01:36:06;;;;;;;9.33;8.37;;;17.30;99.90;;;;;;5101340;28;21024;-83
2021/09/14 01:38:33;;;;;;;9.57;8.77;;;17.30;99.90;;;;;;5101957;28;20452;-85
2021/09/14 01:41:01;;;;;;;9.27;8.43;;;17.30;99.90;;;;;;5100948;28;20484;-83
2021/09/14 01:43:27;;;;;;;9.00;8.10;;;17.30;99.90;;;;;;5100438;28;20452;-83
2021/09/14 01:45:54;;;;;;;9.40;8.50;;;17.30;99.90;;;;;;5101291;28;20452;-82
2021/09/14 01:48:21;;;;;;;9.57;8.70;;;17.30;99.90;;;;;;5101093;28;20455;-85
2021/09/14 01:50:48;;;;;;;9.47;8.77;;;17.20;99.90;;;;;;5101230;28;20469;-82
2021/09/14 01:53:14;;;;;;;9.77;8.97;;;17.20;99.90;;;;;;5100191;28;20448;-83
2021/09/14 01:55:41;;;;;;;9.70;9.00;;;17.10;99.90;;;;;;5101541;28;20456;-84
2021/09/14 01:58:10;;;;;;;10.10;9.20;;;17.10;99.90;;;;;;5100978;28;20485;-81
2021/09/14 02:00:40;;;;;;;9.60;8.70;;;17.10;99.90;;;;;;5101447;28;20977;-83
2021/09/14 02:03:21;;;;;;;10.23;9.20;;;17.10;99.90;;;;;;5100438;28;20437;-83
2021/09/14 02:06:19;;;;;;;11.87;9.23;;;17.00;99.90;;;;;;5100976;28;20444;-83
2021/09/14 02:08:57;;;;;;;8.60;8.00;;;17.00;99.90;;;;;;5107546;28;20456;-84
2021/09/14 02:39:07;;;;;;;8.27;7.67;;;16.70;99.90;;;;;;5098658;28;20440;-86
2021/09/14 02:41:51;;;;;;;17.23;9.93;;;16.70;99.90;;;;;;5098404;28;20926;-86
2021/09/14 02:44:30;;;;;;;10.23;9.33;;;16.70;99.90;;;;;;5099041;28;20456;-84
2021/09/14 03:00:38;;;;;;;10.53;9.40;;;16.60;99.90;;;;;;5080970;28;20953;-86
2021/09/14 03:03:06;;;;;;;10.13;9.23;;;16.60;99.90;;;;;;5097999;28;20518;-86
2021/09/14 03:05:33;;;;;;;9.13;8.23;;;16.60;99.90;;;;;;5098635;28;20466;-86
2021/09/14 03:08:00;;;;;;;14.03;10.87;;;16.60;99.90;;;;;;5098245;28;20445;-86
2021/09/14 03:10:27;;;;;;;10.07;9.17;;;16.60;99.90;;;;;;5097414;28;20476;-84
2021/09/14 03:12:53;;;;;;;10.30;9.40;;;16.70;99.90;;;;;;5098081;28;20440;-86
2021/09/14 03:15:20;;;;;;;10.90;9.90;;;16.70;99.90;;;;;;5098185;28;20445;-86
2021/09/14 03:17:47;;;;;;;10.23;9.43;;;16.70;99.90;;;;;;5097937;28;20491;-85
2021/09/14 03:20:15;;;;;;;9.90;9.00;;;16.70;99.90;;;;;;5097416;28;20480;-87
2021/09/14 03:22:42;;;;;;;9.50;8.70;;;16.80;99.90;;;;;;5097446;28;20447;-86
2021/09/14 03:25:10;;;;;;;11.10;10.10;;;16.80;99.90;;;;;;5097935;28;20697;-86
2021/09/14 03:27:37;;;;;;;12.67;10.87;;;16.80;99.90;;;;;;5098426;28;20450;-86
2021/09/14 03:30:05;;;;;;;11.40;10.40;;;16.90;99.90;;;;;;5097790;28;20480;-86
2021/09/14 03:32:31;;;;;;;11.90;10.70;;;16.90;99.90;;;;;;5098991;28;20445;-86
2021/09/14 03:34:58;;;;;;;8.70;7.90;;;17.00;99.90;;;;;;5100093;28;20828;-86
2021/09/14 03:37:26;;;;;;;12.57;11.47;;;17.00;99.90;;;;;;5098598;28;20481;-86
2021/09/14 03:39:53;;;;;;;11.97;10.90;;;17.00;99.90;;;;;;5097469;28;20480;-86
2021/09/14 03:42:20;;;;;;;10.43;9.53;;;17.00;99.90;;;;;;5097145;28;20452;-85
2021/09/14 03:44:46;;;;;;;9.43;8.63;;;17.00;99.90;;;;;;5097140;28;20808;-86
2021/09/14 03:47:13;;;;;;;10.37;9.37;;;17.00;99.90;;;;;;5098486;28;20448;-86
2021/09/14 03:49:40;;;;;;;11.93;10.90;;;17.10;99.90;;;;;;5097483;28;20467;-84
2021/09/14 03:52:07;;;;;;;11.40;9.70;;;17.10;99.90;;;;;;5097742;28;20453;-86
2021/09/14 03:54:35;;;;;;;11.60;10.60;;;17.10;99.90;;;;;;5098756;28;20456;-83
2021/09/14 03:57:02;;;;;;;10.50;9.60;;;17.00;99.90;;;;;;5098213;28;20480;-84
2021/09/14 03:59:28;;;;;;;16.00;10.53;;;17.00;99.90;;;;;;5098493;28;20473;-86
2021/09/14 04:01:56;;;;;;;11.87;10.87;;;17.00;99.90;;;;;;5098339;28;20449;-85
2021/09/14 04:04:27;;;;;;;10.30;9.50;;;17.00;99.90;;;;;;5098582;28;20460;-85
2021/09/14 04:07:00;;;;;;;11.10;10.20;;;17.00;99.90;;;;;;5098432;28;20451;-86
2021/09/14 04:09:27;;;;;;;12.60;11.30;;;16.90;99.90;;;;;;5098323;28;20543;-87
2021/09/14 04:11:55;;;;;;;11.60;10.60;;;16.90;99.90;;;;;;5097507;28;21019;-86
2021/09/14 04:14:21;;;;;;;13.03;11.93;;;16.90;99.90;;;;;;5097984;28;20451;-84
2021/09/14 04:16:48;;;;;;;12.20;11.20;;;16.90;99.90;;;;;;5098521;28;20483;-86
2021/09/14 04:19:15;;;;;;;12.43;11.23;;;16.90;99.90;;;;;;5114289;28;20448;-81
2021/09/14 04:21:41;;;;;;;12.70;11.60;;;16.80;99.90;;;;;;5114278;28;20428;-82
2021/09/14 04:24:08;;;;;;;12.90;11.73;;;16.90;99.90;;;;;;5107202;28;20454;-85
2021/09/14 04:26:35;;;;;;;13.10;11.90;;;16.80;99.90;;;;;;5097248;28;20459;-86
2021/09/14 04:29:03;;;;;;;13.40;12.23;;;16.80;99.90;;;;;;5096619;28;20451;-86
2021/09/14 04:31:30;;;;;;;11.50;10.50;;;16.90;99.90;;;;;;5096842;28;20967;-86
2021/09/14 04:33:56;;;;;;;12.97;11.80;;;16.80;99.90;;;;;;5096813;28;20457;-87
2021/09/14 04:36:23;;;;;;;9.90;9.10;;;16.80;99.90;;;;;;5096958;28;20447;-85
2021/09/14 04:38:50;;;;;;;12.37;11.37;;;16.90;99.90;;;;;;5096632;28;20529;-83
2021/09/14 04:41:17;;;;;;;13.30;12.10;;;16.90;99.90;;;;;;5096715;28;20841;-86
2021/09/14 04:43:43;;;;;;;12.73;11.47;;;16.90;99.90;;;;;;5096240;28;20455;-86
2021/09/14 04:46:11;;;;;;;12.07;11.07;;;16.80;99.90;;;;;;5096903;28;20452;-86
2021/09/14 04:48:38;;;;;;;10.90;9.93;;;16.80;99.90;;;;;;5097577;28;20977;-83
2021/09/14 04:51:05;;;;;;;10.87;9.87;;;16.80;99.90;;;;;;5097632;28;20468;-86
2021/09/14 04:53:32;;;;;;;12.70;11.60;;;16.80;99.90;;;;;;5096481;28;20448;-87
2021/09/14 04:55:58;;;;;;;12.40;11.10;;;16.80;99.90;;;;;;5096572;28;20934;-84
2021/09/14 04:58:25;;;;;;;12.00;10.77;;;16.80;99.90;;;;;;5096972;28;20483;-86
2021/09/14 05:00:52;;;;;;;11.93;11.00;;;16.80;99.90;;;;;;5097538;28;20474;-86
2021/09/14 05:03:20;;;;;;;11.30;10.30;;;16.80;99.90;;;;;;5100197;28;20447;-84
2021/09/14 05:05:47;;;;;;;12.77;11.57;;;16.80;99.90;;;;;;5101366;28;20818;-83
2021/09/14 05:08:14;;;;;;;12.70;11.60;;;16.70;99.90;;;;;;5101200;28;20502;-86
2021/09/14 05:10:40;;;;;;;11.57;10.50;;;16.80;99.90;;;;;;5101503;28;20480;-86
2021/09/14 05:13:07;;;;;;;13.33;12.10;;;16.80;99.90;;;;;;5100849;28;20967;-86
2021/09/14 05:15:34;;;;;;;12.67;11.63;;;16.80;99.90;;;;;;5101044;28;20463;-86
2021/09/14 05:18:08;;;;;;;13.07;12.00;;;16.80;99.90;;;;;;5101274;28;20494;-86
2021/09/14 05:20:36;;;;;;;13.20;11.90;;;16.80;99.90;;;;;;5108796;28;20473;-85
2021/09/14 05:23:12;;;;;;;11.87;10.70;;;16.80;99.90;;;;;;5100294;28;20463;-86
2021/09/14 05:25:39;;;;;;;12.70;11.50;;;16.80;99.90;;;;;;5102897;28;20463;-84
2021/09/14 05:28:06;;;;;;;14.57;13.10;;;16.80;99.90;;;;;;5103381;28;20451;-85
2021/09/14 05:30:33;;;;;;;12.47;11.27;;;16.80;99.90;;;;;;5102199;28;20839;-86
2021/09/14 05:33:00;;;;;;;12.47;11.30;;;16.70;99.90;;;;;;5109604;28;20448;-81
2021/09/14 05:35:32;;;;;;;13.03;11.73;;;16.70;99.90;;;;;;5116881;28;20453;-83
2021/09/14 05:38:01;;;;;;;14.17;12.87;;;16.80;99.90;;;;;;5104468;28;20488;-84
2021/09/14 05:40:27;;;;;;;15.27;13.30;;;16.70;99.90;;;;;;5102137;28;20466;-84
2021/09/14 05:42:54;;;;;;;13.00;11.80;;;16.80;99.90;;;;;;5101477;28;20534;-86
2021/09/14 05:45:21;;;;;;;14.37;13.17;;;16.80;99.90;;;;;;5102531;28;20457;-86
2021/09/14 05:47:47;;;;;;;15.13;12.57;;;16.80;99.90;;;;;;5102669;28;20451;-84
2021/09/14 05:50:14;;;;;;;14.13;12.83;;;16.80;99.90;;;;;;5097789;28;20464;-83
2021/09/14 05:52:41;;;;;;;14.87;13.57;;;16.80;99.90;;;;;;5098169;28;20818;-85
2021/09/14 05:55:10;;;;;;;14.30;12.83;;;16.90;99.90;;;;;;5104731;28;20949;-83
2021/09/14 05:57:37;;;;;;;12.90;11.80;;;16.90;99.90;;;;;;5097014;28;20479;-85
2021/09/14 06:00:04;;;;;;;12.70;11.60;;;16.90;99.90;;;;;;5101651;28;20482;-84
2021/09/14 06:02:31;;;;;;;11.47;10.47;;;16.90;99.90;;;;;;5108051;28;20451;-85
2021/09/14 06:04:57;;;;;;;13.17;11.97;;;17.00;99.90;;;;;;5105801;28;20442;-85
2021/09/14 06:07:24;;;;;;;10.57;9.47;;;17.10;99.90;;;;;;5108597;28;20802;-84
2021/09/14 06:09:51;;;;;;;11.67;10.57;;;17.10;99.90;;;;;;5105952;28;20536;-85
2021/09/14 06:12:19;;;;;;;10.30;9.30;;;17.20;99.90;;;;;;5106548;28;20452;-81
2021/09/14 06:14:55;;;;;;;9.57;8.67;;;17.30;99.90;;;;;;5100079;28;20437;-80
2021/09/14 06:17:31;;;;;;;10.20;9.20;;;17.40;99.90;;;;;;5098439;28;20928;-84
2021/09/14 06:19:59;;;;;;;9.33;8.53;;;17.50;99.90;;;;;;5102874;28;20469;-84
2021/09/14 06:22:32;;;;;;;10.83;9.83;;;17.60;99.90;;;;;;5099980;28;20450;-84
2021/09/14 06:25:03;;;;;;;10.07;9.07;;;17.70;99.90;;;;;;5098860;28;20496;-86
2021/09/14 06:28:00;;;;;;;9.13;8.27;;;17.80;99.90;;;;;;5097089;28;20432;-85
2021/09/14 06:30:31;;;;;;;9.60;8.80;;;17.90;99.90;;;;;;5090402;28;20539;-84
2021/09/14 06:38:46;;;;;;;9.50;8.50;;;18.20;99.90;;;;;;5098166;28;20489;-82
2021/09/14 06:41:13;;;;;;;8.90;8.10;;;18.30;99.90;;;;;;5097431;28;20978;-85
2021/09/14 06:43:50;;;;;;;9.40;8.70;;;18.40;99.90;;;;;;5099656;28;20450;-86
2021/09/14 06:46:17;;;;;;;9.87;8.97;;;18.50;99.90;;;;;;5100999;28;20456;-85
2021/09/14 06:48:45;;;;;;;9.77;8.90;;;18.70;99.90;;;;;;5100290;28;20450;-86
2021/09/14 06:51:14;;;;;;;8.43;7.77;;;18.80;99.90;;;;;;5096541;28;20500;-84
2021/09/14 06:53:42;;;;;;;8.50;7.80;;;18.90;99.90;;;;;;5096528;28;20450;-85
2021/09/14 06:56:17;;;;;;;9.70;8.70;;;19.00;99.90;;;;;;5096921;28;20496;-85
2021/09/14 07:02:01;;;;;;;9.90;8.90;;;19.30;99.90;;;;;;4969631;28;20448;-84
2021/09/14 07:04:30;;;;;;;9.67;8.77;;;19.50;99.90;;;;;;5041027;28;20453;-83
2021/09/14 07:10:06;;;;;;;;;;;;;;;;;;;;;
2021/09/14 07:12:55;;;;;;;10.00;9.13;;;19.60;99.90;;;;;;5092801;28;20437;-86
2021/09/14 07:15:30;;;;;;;8.10;7.40;;;19.70;99.90;;;;;;5090562;28;20451;-85
2021/09/14 07:17:59;;;;;;;8.87;8.00;;;19.80;99.90;;;;;;5093977;28;20503;-85
2021/09/14 07:20:26;;;;;;;8.80;8.00;;;19.90;99.90;;;;;;5096901;28;20471;-84
2021/09/14 07:22:53;;;;;;;8.43;7.57;;;19.90;99.90;;;;;;5097598;28;20550;-86
2021/09/14 07:25:20;;;;;;;10.67;9.77;;;20.00;99.90;;;;;;5101977;28;21008;-85
2021/09/14 07:27:47;;;;;;;7.87;7.03;;;20.00;99.90;;;;;;5103924;28;20477;-85
2021/09/14 07:30:15;;;;;;;8.83;8.03;;;20.10;99.90;;;;;;5097882;28;20490;-85
2021/09/14 07:32:46;;;;;;;8.33;7.63;;;20.10;99.90;;;;;;5091609;28;20825;-85
2021/09/14 07:35:14;;;;;;;8.03;7.33;;;20.20;99.90;;;;;;5092179;28;20442;-85
2021/09/14 07:37:48;;;;;;;9.33;8.57;;;20.20;99.90;;;;;;5092476;28;20507;-85
2021/09/14 07:40:19;;;;;;;7.73;7.00;;;20.20;99.90;;;;;;5093434;28;20464;-86
2021/09/14 07:43:03;;;;;;;7.17;6.67;;;20.30;99.90;;;;;;5092590;28;20481;-85
2021/09/14 07:45:37;;;;;;;9.13;6.47;;;20.40;99.90;;;;;;5096695;28;20489;-82
2021/09/14 07:48:05;;;;;;;6.67;6.07;;;20.50;99.90;;;;;;5095603;28;20805;-84
2021/09/14 07:50:33;;;;;;;7.87;7.17;;;20.50;99.90;;;;;;5097941;28;20513;-84
2021/09/14 07:53:00;;;;;;;9.70;7.20;;;20.60;99.90;;;;;;5096523;28;20458;-86
2021/09/14 07:55:27;;;;;;;7.30;6.70;;;20.70;99.90;;;;;;5096144;28;20454;-85
2021/09/14 07:57:53;;;;;;;7.70;7.07;;;20.70;99.90;;;;;;5095438;28;20488;-86
2021/09/14 08:00:20;;;;;;;7.23;6.67;;;20.80;99.90;;;;;;5097662;28;20477;-85
2021/09/14 08:02:54;;;;;;;6.17;5.70;;;20.90;99.90;;;;;;5096280;28;20450;-85
2021/09/14 08:05:20;;;;;;;6.77;6.17;;;21.00;99.90;;;;;;5097474;28;20475;-84
2021/09/14 08:07:48;;;;;;;7.40;6.80;;;21.00;99.90;;;;;;5097821;28;20968;-86
2021/09/14 08:10:15;;;;;;;6.17;5.77;;;21.10;99.90;;;;;;5098932;28;21056;-84
2021/09/14 08:12:42;;;;;;;6.70;6.20;;;21.20;99.90;;;;;;5095757;28;21319;-84
2021/09/14 08:15:10;;;;;;;7.40;6.70;;;21.20;99.90;;;;;;5097834;28;20458;-84
2021/09/14 08:17:37;;;;;;;6.13;5.40;;;21.30;99.90;;;;;;5098609;28;20462;-80
2021/09/14 08:20:06;;;;;;;7.53;6.93;;;21.40;99.90;;;;;;5102248;28;20465;-82
2021/09/14 08:22:32;;;;;;;6.30;5.83;;;21.40;99.90;;;;;;5096510;28;21127;-82
2021/09/14 08:25:01;;;;;;;7.43;6.67;;;21.50;99.90;;;;;;5096625;28;20481;-82
2021/09/14 08:27:27;;;;;;;5.43;5.03;;;21.60;99.90;;;;;;5096591;28;20456;-85
2021/09/14 08:29:54;;;;;;;6.40;5.50;;;21.70;99.90;;;;;;5097937;28;20476;-84
2021/09/14 08:32:21;;;;;;;6.07;5.67;;;21.80;99.90;;;;;;5096372;28;20456;-84
2021/09/14 08:34:48;;;;;;;5.77;5.37;;;21.90;99.90;;;;;;5096416;28;20469;-84
2021/09/14 08:37:14;;;;;;;6.47;5.73;;;22.00;99.90;;;;;;5099072;28;20455;-82
2021/09/14 08:39:41;;;;;;;5.83;5.33;;;22.00;99.90;;;;;;5114328;28;20470;-82
2021/09/14 08:42:09;;;;;;;6.23;5.70;;;22.20;99.90;;;;;;5118672;28;20449;-82
2021/09/14 08:44:39;;;;;;;11.13;7.03;;;22.30;99.90;;;;;;5116454;28;20448;-83
2021/09/14 08:47:06;;;;;;;7.70;7.23;;;22.30;99.90;;;;;;5100814;28;20514;-84
2021/09/14 08:49:33;;;;;;;6.37;5.83;;;22.40;99.90;;;;;;5101003;28;20470;-84
2021/09/14 08:52:35;;;;;;;6.03;5.53;;;22.40;99.90;;;;;;5101264;28;20460;-85
2021/09/14 08:55:02;;;;;;;6.20;5.70;;;22.50;99.90;;;;;;5092771;28;20475;-85
2021/09/14 08:57:43;;;;;;;;;;;;;;;;;;;;;
2021/09/14 09:00:13;;;;;;;6.47;5.93;;;22.70;99.90;;;;;;5105340;28;20552;-85
2021/09/14 09:02:39;;;;;;;6.80;6.13;;;22.80;99.90;;;;;;5115751;28;20454;-85
2021/09/14 09:05:07;;;;;;;5.90;5.40;;;22.90;99.90;;;;;;5104269;28;20445;-84
2021/09/14 09:07:36;;;;;;;6.63;6.17;;;23.00;99.90;;;;;;5100454;28;20510;-82
2021/09/14 09:10:14;;;;;;;5.87;5.47;;;23.00;99.90;;;;;;5100303;28;20551;-82
2021/09/14 09:12:46;;;;;;;5.87;5.40;;;23.20;99.90;;;;;;5100163;28;20465;-82
2021/09/14 09:15:23;;;;;;;6.27;5.67;;;23.40;99.90;;;;;;5100604;28;20553;-84
2021/09/14 09:18:00;;;;;;;5.53;5.13;;;23.50;99.90;;;;;;5103194;28;20519;-83
2021/09/14 09:20:28;;;;;;;6.03;5.63;;;23.50;99.90;;;;;;5102395;28;21032;-84
2021/09/14 09:22:59;;;;;;;7.07;6.57;;;23.60;99.90;;;;;;5100181;28;20447;-84
2021/09/14 09:25:26;;;;;;;6.07;5.57;;;23.60;99.90;;;;;;5100380;28;20450;-82
2021/09/14 09:28:05;;;;;;;5.93;5.53;;;23.70;99.90;;;;;;5099419;28;20449;-83
2021/09/14 09:30:34;;;;;;;6.00;5.60;;;23.80;99.90;;;;;;5096266;28;20677;-83
2021/09/14 09:33:03;;;;;;;5.87;5.37;;;24.00;99.90;;;;;;5099177;28;20458;-82
2021/09/14 09:35:33;;;;;;;5.53;5.20;;;24.10;99.90;;;;;;5100492;28;20540;-83
2021/09/14 09:38:01;;;;;;;6.23;5.73;;;24.30;99.90;;;;;;5095883;28;20443;-82
2021/09/14 09:40:31;;;;;;;6.30;5.90;;;24.40;99.90;;;;;;5103268;28;20467;-83
2021/09/14 09:42:59;;;;;;;7.30;6.37;;;24.50;99.90;;;;;;5099753;28;21124;-81
2021/09/14 09:45:28;;;;;;;7.03;6.53;;;24.70;99.90;;;;;;5082268;28;20472;-84
2021/09/14 09:47:55;;;;;;;5.60;5.20;;;24.80;99.90;;;;;;5075295;28;20443;-83
2021/09/14 09:50:22;;;;;;;6.07;5.67;;;24.90;99.90;;;;;;5079262;28;20494;-84
2021/09/14 09:52:49;;;;;;;6.50;6.00;;;25.10;99.90;;;;;;5076331;28;20456;-83
2021/09/14 09:55:16;;;;;;;5.93;5.43;;;25.20;99.50;;;;;;5080037;28;20452;-83
2021/09/14 09:57:43;;;;;;;6.90;6.37;;;25.40;99.80;;;;;;5080130;28;20449;-84
2021/09/14 10:00:12;;;;;;;5.73;5.33;;;25.50;99.60;;;;;;5077356;28;20995;-84
2021/09/14 10:02:45;;;;;;;6.20;5.80;;;25.60;98.60;;;;;;5080272;28;20497;-84
2021/09/14 10:05:14;;;;;;;5.80;5.30;;;25.70;98.00;;;;;;5080160;28;20465;-84
2021/09/14 10:07:45;;;;;;;6.77;6.37;;;25.80;98.50;;;;;;5081124;28;20460;-83
2021/09/14 10:10:12;;;;;;;5.87;5.47;;;25.90;97.70;;;;;;5080326;28;20484;-84
2021/09/14 10:12:45;;;;;;;6.00;5.60;;;25.90;97.10;;;;;;5082817;28;20817;-81
2021/09/14 10:15:14;;;;;;;5.40;5.10;;;25.90;97.40;;;;;;5082062;28;20460;-84
2021/09/14 10:17:50;;;;;;;6.37;5.97;;;26.10;97.20;;;;;;5076553;28;20779;-81
2021/09/14 10:20:19;;;;;;;7.03;6.53;;;26.30;97.40;;;;;;5077420;28;20495;-83
2021/09/14 10:23:02;;;;;;;6.73;6.23;;;26.30;96.90;;;;;;5075598;28;20454;-83
2021/09/14 10:25:29;;;;;;;6.00;5.50;;;26.50;96.20;;;;;;5077452;28;20516;-82
2021/09/14 10:28:07;;;;;;;6.60;6.10;;;26.70;96.80;;;;;;5084182;28;20470;-84
2021/09/14 10:30:35;;;;;;;6.07;5.57;;;26.70;97.10;;;;;;5077267;28;20470;-83
2021/09/14 10:33:04;;;;;;;5.63;5.20;;;26.90;96.60;;;;;;5075765;28;20959;-83
2021/09/14 10:35:38;;;;;;;6.73;6.03;;;27.10;95.70;;;;;;5075461;28;20551;-83
2021/09/14 10:38:10;;;;;;;6.37;5.87;;;27.10;95.40;;;;;;5075435;28;20470;-82
2021/09/14 10:40:45;;;;;;;6.47;5.97;;;27.30;96.30;;;;;;5078737;28;20488;-83
2021/09/14 10:43:25;;;;;;;6.17;5.77;;;27.40;95.10;;;;;;5084035;28;20505;-84
2021/09/14 10:45:52;;;;;;;6.53;6.03;;;27.40;95.10;;;;;;5079994;28;20459;-83
2021/09/14 10:48:28;;;;;;;6.40;5.90;;;27.50;95.40;;;;;;5075321;28;20460;-84
2021/09/14 10:51:38;;;;;;;6.17;5.67;;;27.50;94.40;;;;;;5074773;28;20476;-86
2021/09/14 11:00:51;;;;;;;16.70;6.60;;;28.30;94.00;;;;;;4809090;28;20496;-84
2021/09/14 11:03:19;;;;;;;6.33;5.77;;;28.80;94.00;;;;;;5021069;28;20464;-82
2021/09/14 11:05:53;;;;;;;6.13;5.70;;;29.30;92.40;;;;;;5029726;28;20451;-83
2021/09/14 11:08:25;;;;;;;6.20;5.50;;;29.70;92.40;;;;;;5085045;28;20484;-82
2021/09/14 11:10:58;;;;;;;5.57;5.17;;;30.30;91.20;;;;;;5080715;28;20476;-82
2021/09/14 11:13:32;;;;;;;6.03;5.63;;;30.70;89.70;;;;;;5077422;28;20448;-83
2021/09/14 11:16:01;;;;;;;5.87;5.37;;;30.90;87.90;;;;;;5077615;28;20822;-82
2021/09/14 11:18:29;;;;;;;5.93;5.53;;;31.10;87.00;;;;;;5077629;28;20455;-83
2021/09/14 11:21:04;;;;;;;5.27;4.90;;;31.40;86.20;;;;;;5075810;28;20472;-83
2021/09/14 11:23:31;;;;;;;6.13;5.63;;;32.00;85.20;;;;;;5073250;28;20461;-85
2021/09/14 11:25:59;;;;;;;5.90;5.50;;;32.20;82.70;;;;;;5074012;28;20445;-82
2021/09/14 11:28:26;;;;;;;6.50;6.07;;;32.30;82.30;;;;;;5073025;28;20454;-83
2021/09/14 11:30:55;;;;;;;7.07;6.47;;;32.60;81.90;;;;;;5073555;28;20464;-83
2021/09/14 11:33:22;;;;;;;6.03;5.10;;;32.90;82.10;;;;;;5072548;28;20450;-80
2021/09/14 11:35:50;;;;;;;5.33;5.03;;;33.00;79.10;;;;;;5073276;28;20466;-83
2021/09/14 11:38:19;;;;;;;5.83;5.33;;;33.00;80.50;;;;;;5073305;28;20451;-82
2021/09/14 11:40:48;;;;;;;5.83;5.43;;;32.50;78.40;;;;;;5073640;28;20541;-81
2021/09/14 11:43:20;;;;;;;5.90;5.50;;;32.20;79.20;;;;;;5073117;28;20812;-84
2021/09/14 11:45:47;;;;;;;6.83;6.33;;;32.00;79.30;;;;;;5073465;28;20466;-82
2021/09/14 11:48:19;;;;;;;5.50;5.20;;;32.00;80.30;;;;;;5073770;28;20456;-83
2021/09/14 11:50:46;;;;;;;6.30;5.73;;;31.90;80.10;;;;;;5081520;28;20980;-84
2021/09/14 11:53:19;;;;;;;6.60;6.03;;;31.80;81.10;;;;;;5082331;28;20455;-84
2021/09/14 11:55:48;;;;;;;6.20;5.70;;;32.00;80.70;;;;;;5084137;28;20444;-83
2021/09/14 11:58:27;;;;;;;5.17;4.87;;;32.20;79.80;;;;;;5083098;28;20459;-82
2021/09/14 12:00:59;;;;;;;5.63;5.23;;;32.50;77.80;;;;;;5083742;28;20497;-83
2021/09/14 12:03:35;;;;;;;5.37;4.97;;;32.60;78.00;;;;;;5082394;28;21020;-83
2021/09/14 12:06:01;;;;;;;6.47;5.97;;;32.20;77.40;;;;;;5083566;28;20423;-83
2021/09/14 12:08:31;;;;;;;5.80;5.30;;;31.90;78.10;;;;;;5084889;28;20450;-83
2021/09/14 12:10:59;;;;;;;6.10;5.30;;;31.60;77.80;;;;;;5087773;28;20473;-84
2021/09/14 12:13:26;;;;;;;5.50;5.17;;;31.10;78.50;;;;;;5084879;28;20454;-83
2021/09/14 12:16:05;;;;;;;6.07;5.40;;;30.90;80.00;;;;;;5081576;28;20451;-81
2021/09/14 12:18:31;;;;;;;6.00;5.50;;;30.50;80.40;;;;;;5081731;28;20458;-83
2021/09/14 12:20:58;;;;;;;5.90;5.40;;;30.40;81.70;;;;;;5081424;28;20519;-83
2021/09/14 12:23:25;;;;;;;6.60;6.10;;;30.30;83.00;;;;;;5081036;28;20461;-83
2021/09/14 12:25:53;;;;;;;6.60;6.10;;;30.10;83.40;;;;;;5081887;28;20451;-83
2021/09/14 12:28:20;;;;;;;5.70;5.30;;;30.30;82.30;;;;;;5081867;28;20452;-83
2021/09/14 12:30:46;;;;;;;5.57;5.13;;;30.40;83.60;;;;;;5081051;28;20483;-83
2021/09/14 12:33:16;;;;;;;6.30;5.80;;;30.70;82.70;;;;;;5088911;28;20452;-83
2021/09/14 12:35:43;;;;;;;6.93;6.33;;;30.90;81.40;;;;;;5087519;28;20446;-83
2021/09/14 12:38:10;;;;;;;6.00;5.50;;;31.00;79.80;;;;;;5088561;28;20453;-82
2021/09/14 12:40:37;;;;;;;6.30;5.80;;;31.10;79.70;;;;;;5083951;28;20488;-84
2021/09/14 12:43:05;;;;;;;7.10;6.60;;;31.30;79.50;;;;;;5082456;28;20466;-81
2021/09/14 12:45:32;;;;;;;6.23;5.77;;;31.10;80.70;;;;;;5088588;28;20463;-79
2021/09/14 12:47:59;;;;;;;5.90;5.37;;;31.00;79.50;;;;;;5096828;28;20437;-79
2021/09/14 12:50:25;;;;;;;6.67;6.13;;;31.00;78.80;;;;;;5096524;28;20460;-83
2021/09/14 12:52:52;;;;;;;6.50;6.00;;;31.00;79.50;;;;;;5083716;28;20459;-82
2021/09/14 12:55:19;;;;;;;6.30;5.90;;;31.00;80.30;;;;;;5082082;28;20481;-83
2021/09/14 12:57:46;;;;;;;6.10;5.50;;;31.10;79.80;;;;;;5083758;28;20460;-82
2021/09/14 13:00:14;;;;;;;5.67;5.27;;;31.40;78.80;;;;;;5083987;28;20494;-82
2021/09/14 13:02:41;;;;;;;6.37;5.77;;;32.00;77.80;;;;;;5085037;28;20461;-82
2021/09/14 13:05:09;;;;;;;7.77;6.93;;;32.60;78.30;;;;;;5088066;28;20459;-83
2021/09/14 13:07:35;;;;;;;6.93;6.43;;;33.00;75.60;;;;;;5085139;28;20459;-84
2021/09/14 13:10:05;;;;;;;7.23;6.57;;;33.30;76.60;;;;;;5086172;28;20479;-83
2021/09/14 13:12:32;;;;;;;7.37;6.93;;;34.00;74.80;;;;;;5085843;28;20455;-84
2021/09/14 13:17:45;;;;;;;6.50;6.00;;;35.20;71.00;;;;;;5082316;28;20477;-84
2021/09/14 13:20:12;;;;;;;7.20;6.73;;;35.40;67.90;;;;;;5082783;28;21059;-84
2021/09/14 13:22:39;;;;;;;6.20;5.63;;;34.90;66.70;;;;;;5083460;28;20446;-84
2021/09/14 13:25:07;;;;;;;6.77;6.27;;;34.50;68.60;;;;;;5096516;28;20454;-83
2021/09/14 13:27:34;;;;;;;7.47;6.87;;;33.80;70.00;;;;;;5096364;28;20464;-83
2021/09/14 13:30:00;;;;;;;7.77;6.87;;;33.00;71.20;;;;;;5095872;28;20996;-84
2021/09/14 13:33:10;;;;;;;7.07;6.57;;;32.80;72.40;;;;;;5095784;28;20812;-84
2021/09/14 14:07:23;;;;;;;6.77;6.27;;;31.50;75.90;;;;;;5096244;28;20464;-82
2021/09/14 14:09:50;;;;;;;7.57;6.97;;;31.40;76.20;;;;;;5097193;28;20504;-85
2021/09/14 14:12:17;;;;;;;7.40;6.90;;;31.40;77.20;;;;;;5099005;28;20472;-84
2021/09/14 14:15:10;;;;;;;;;;;;;;;;;;;;;
2021/09/14 14:27:54;;;;;;;9.20;6.77;;;29.80;80.80;;;;;;5021956;28;20796;-84
2021/09/14 14:47:14;;;;;;;7.60;6.83;;;29.80;81.00;;;;;;4765375;30;20462;-84
2021/09/14 15:30:48;;;;;;;9.23;8.53;;;27.40;90.90;;;;;;5054721;22;20483;-82
2021/09/14 15:33:55;;;;;;;8.30;7.60;;;27.50;91.10;;;;;;5076373;28;20486;-84
2021/09/14 15:36:47;;;;;;;8.80;8.00;;;27.50;91.20;;;;;;5065458;28;20483;-85
2021/09/14 15:39:14;;;;;;;9.00;8.30;;;27.50;91.60;;;;;;5065100;28;20541;-84